Terminal Aerodrome Forecast
Issued by NWS

Home | Current Version | Previous Version | Text Only | Print | Product List | Glossary On
Versions: 1 2 3 4 5 6 7 8 9 10 11 12 13 14 15 16 17 18 19 20
177
FTUS46 KSTO 102333
TAFSCK
TAF
KSCK 102333Z 1100/1124 14008KT 3SM -SHRA BKN025
     FM110300 16005KT P6SM OVC025
     FM110800 VRB04KT P6SM FEW250
     FM111200 VRB04KT 2SM BR FEW250
     FM111800 30004KT P6SM FEW250=

USA.gov is the U.S. government's official web portal to all federal, state and local government web resources and services.